createdAt,value
2022-09-01T00:00:03.926Z,1.77
2022-09-01T00:02:31.079Z,1.70
2022-09-01T00:04:58.666Z,1.60
2022-09-01T00:07:30.712Z,1.70
2022-09-01T00:09:59.533Z,1.73
2022-09-01T00:12:27.619Z,1.50
2022-09-01T00:14:54.672Z,1.60
2022-09-01T00:17:21.984Z,1.70
2022-09-01T00:19:49.502Z,1.50
2022-09-01T00:22:16.655Z,1.77
2022-09-01T00:43:47.324Z,1.73
2022-09-01T00:46:21.998Z,1.50
2022-09-01T00:48:59.669Z,1.58
2022-09-01T00:56:14.236Z,1.65
2022-09-01T00:58:42.316Z,1.65
2022-09-01T01:01:11.683Z,1.90
2022-09-01T01:03:45.910Z,1.67
2022-09-01T01:06:17.104Z,1.80
2022-09-01T01:08:57.887Z,1.67
2022-09-01T01:11:26.971Z,1.70
2022-09-01T01:13:55.921Z,1.80
2022-09-01T01:16:25.687Z,1.60
2022-09-01T01:18:53.804Z,1.58
2022-09-01T01:21:55.450Z,1.45
2022-09-01T01:24:29.478Z,1.50
2022-09-01T01:27:00.168Z,1.70
2022-09-01T01:29:31.853Z,1.70
2022-09-01T01:31:58.823Z,1.50
2022-09-01T01:34:25.642Z,1.75
2022-09-01T01:36:53.337Z,1.40
2022-09-01T01:39:25.608Z,1.50
2022-09-01T01:41:55.780Z,1.30
2022-09-01T01:44:28.379Z,1.70
2022-09-01T01:46:56.168Z,1.58
2022-09-01T01:49:26.013Z,1.50
2022-09-01T01:52:49.323Z,1.58
2022-09-01T01:55:27.481Z,1.25
2022-09-01T01:57:54.925Z,1.55
2022-09-01T02:00:30.566Z,1.60
2022-09-01T02:02:58.841Z,1.40
2022-09-01T02:05:30.331Z,1.63
2022-09-01T02:08:01.849Z,1.58
2022-09-01T02:10:32.006Z,1.40
2022-09-01T02:13:04.352Z,1.58
2022-09-01T02:15:43.810Z,1.50
2022-09-01T02:18:16.751Z,1.50
2022-09-01T02:20:47.772Z,1.40
2022-09-01T02:23:18.130Z,1.60
2022-09-01T02:26:14.027Z,1.63
2022-09-01T02:28:42.024Z,1.55
2022-09-01T02:31:11.345Z,1.40
2022-09-01T02:33:40.654Z,1.40
2022-09-01T02:36:13.382Z,1.65
2022-09-01T02:38:46.095Z,1.48
2022-09-01T02:41:15.265Z,1.67
2022-09-01T02:43:46.260Z,1.65
2022-09-01T02:46:14.877Z,1.50
2022-09-01T02:48:46.385Z,1.50
2022-09-01T02:58:20.351Z,1.60
2022-09-01T03:00:57.462Z,1.60
2022-09-01T03:03:25.550Z,1.70
2022-09-01T03:05:56.235Z,1.50
2022-09-01T03:08:24.959Z,1.70
2022-09-01T03:10:54.075Z,1.40
2022-09-01T03:13:23.945Z,1.77
2022-09-01T03:15:51.472Z,1.60
2022-09-01T03:18:19.076Z,1.65
2022-09-01T03:20:47.058Z,1.70
2022-09-01T03:23:19.322Z,1.60
2022-09-01T03:25:47.723Z,1.92
2022-09-01T03:28:15.957Z,1.77
2022-09-01T03:30:55.338Z,1.63
2022-09-01T03:33:25.100Z,1.80
2022-09-01T03:35:52.440Z,1.80
2022-09-01T03:38:24.468Z,1.80
2022-09-01T03:40:54.827Z,1.85
2022-09-01T03:43:24.986Z,1.80
2022-09-01T03:45:51.967Z,2.25
2022-09-01T03:48:19.525Z,2.10
2022-09-01T03:50:47.339Z,1.80
2022-09-01T03:57:14.423Z,1.80
2022-09-01T03:59:45.224Z,2.20
2022-09-01T04:02:13.141Z,2.13
2022-09-01T04:04:40.115Z,2.00
2022-09-01T04:07:07.534Z,1.95
2022-09-01T04:09:35.315Z,1.85
2022-09-01T04:12:05.348Z,1.63
2022-09-01T04:14:34.881Z,2.20
2022-09-01T04:17:20.431Z,2.10
2022-09-01T04:19:47.602Z,2.20
2022-09-01T04:22:17.604Z,1.83
2022-09-01T04:24:46.129Z,2.08
2022-09-01T04:27:15.031Z,2.10
2022-09-01T04:29:41.863Z,2.47
2022-09-01T04:32:13.018Z,2.00
2022-09-01T04:34:41.601Z,2.20
2022-09-01T04:37:15.512Z,2.95
2022-09-01T04:39:51.376Z,3.10
2022-09-01T04:42:21.795Z,2.72
2022-09-01T04:44:48.734Z,3.08
2022-09-01T04:47:17.091Z,3.00
2022-09-01T04:49:50.931Z,3.00
2022-09-01T04:56:25.196Z,2.92
2022-09-01T04:58:55.709Z,2.45
2022-09-01T05:01:26.225Z,2.40
2022-09-01T05:04:01.431Z,2.60
2022-09-01T05:06:33.986Z,2.40
2022-09-01T05:09:00.845Z,2.75
2022-09-01T05:11:27.859Z,2.28
2022-09-01T05:13:57.794Z,3.40
2022-09-01T05:16:27.885Z,5.68
2022-09-01T05:18:57.098Z,2.50
2022-09-01T05:21:28.325Z,2.38
2022-09-01T05:24:00.671Z,5.38
2022-09-01T05:26:30.080Z,2.70
2022-09-01T05:29:00.168Z,2.00
2022-09-01T05:31:33.513Z,2.38
2022-09-01T05:34:02.152Z,2.10
2022-09-01T05:36:33.558Z,2.40
2022-09-01T05:39:02.160Z,2.20
2022-09-01T05:41:29.250Z,2.17
2022-09-01T05:44:00.629Z,2.17
2022-09-01T05:46:28.328Z,2.30
2022-09-01T05:48:56.829Z,2.30
2022-09-01T05:51:43.993Z,2.08
2022-09-01T05:58:19.989Z,2.08
2022-09-01T06:00:49.193Z,2.13
2022-09-01T06:03:17.693Z,2.40
2022-09-01T06:05:48.293Z,2.00
2022-09-01T06:08:15.433Z,2.60
2022-09-01T06:10:43.448Z,2.35
2022-09-01T06:13:10.760Z,3.42
2022-09-01T06:15:39.106Z,5.50
2022-09-01T06:18:07.046Z,3.88
2022-09-01T06:20:34.212Z,4.20
2022-09-01T06:23:01.090Z,5.18
2022-09-01T06:25:30.508Z,4.38
2022-09-01T06:27:57.819Z,2.50
2022-09-01T06:30:26.575Z,3.50
2022-09-01T06:32:54.554Z,3.08
2022-09-01T06:35:25.251Z,2.78
2022-09-01T06:37:52.815Z,3.00
2022-09-01T06:40:19.775Z,3.13
2022-09-01T06:42:48.342Z,2.67
2022-09-01T06:45:17.877Z,4.82
2022-09-01T06:47:47.195Z,3.63
2022-09-01T07:02:27.021Z,2.28
2022-09-01T07:04:54.875Z,2.00
2022-09-01T07:10:24.896Z,1.73
2022-09-01T07:13:11.576Z,1.80
2022-09-01T07:18:27.837Z,1.83
2022-09-01T07:21:02.801Z,1.80
2022-09-01T07:23:46.345Z,1.83
2022-09-01T07:26:27.065Z,1.80
2022-09-01T07:29:01.946Z,1.80
2022-09-01T07:39:55.321Z,1.70
2022-09-01T07:45:27.325Z,1.70
2022-09-01T07:47:55.362Z,1.77
2022-09-01T07:50:39.774Z,1.70
2022-09-01T07:56:11.159Z,1.80
2022-09-01T07:58:40.299Z,1.90
2022-09-01T08:01:13.388Z,1.50
2022-09-01T08:03:41.470Z,1.65
2022-09-01T08:06:10.865Z,1.90
2022-09-01T08:08:39.954Z,1.90
2022-09-01T08:11:08.146Z,1.70
2022-09-01T08:13:41.622Z,4.93
2022-09-01T08:16:16.964Z,2.50
2022-09-01T08:18:48.589Z,1.92
2022-09-01T08:21:17.756Z,1.80
2022-09-01T08:23:44.658Z,1.60
2022-09-01T08:26:17.118Z,1.88
2022-09-01T08:28:54.330Z,1.90
2022-09-01T08:31:22.944Z,1.60
2022-09-01T08:33:51.038Z,1.80
2022-09-01T08:36:23.022Z,1.88
2022-09-01T08:38:51.628Z,1.70
2022-09-01T08:41:48.149Z,1.90
2022-09-01T08:44:44.044Z,1.73
2022-09-01T08:47:15.501Z,1.70
2022-09-01T08:49:46.809Z,1.90
2022-09-01T08:52:55.680Z,1.75
2022-09-01T08:55:34.410Z,2.00
2022-09-01T08:58:02.248Z,1.60
2022-09-01T09:00:42.468Z,1.90
2022-09-01T09:03:09.298Z,1.70
2022-09-01T09:05:43.508Z,2.00
2022-09-01T09:08:33.009Z,1.70
2022-09-01T09:11:06.665Z,1.80
2022-09-01T09:14:06.573Z,1.70
2022-09-01T09:16:41.046Z,1.70
2022-09-01T09:19:23.298Z,1.70
2022-09-01T09:21:54.177Z,1.80
2022-09-01T09:24:50.134Z,1.58
2022-09-01T09:27:39.931Z,1.67
2022-09-01T09:30:19.186Z,2.17
2022-09-01T09:35:51.098Z,1.80
2022-09-01T09:38:24.388Z,1.80
2022-09-01T09:41:26.083Z,1.80
2022-09-01T09:44:26.877Z,1.80
2022-09-01T09:46:53.734Z,1.80
2022-09-01T09:49:34.222Z,1.75
2022-09-01T09:52:09.717Z,1.67
2022-09-01T09:54:57.462Z,1.90
2022-09-01T10:30:43.226Z,1.77
2022-09-01T10:33:19.888Z,1.70
2022-09-01T10:35:52.914Z,1.70
2022-09-01T10:38:28.760Z,1.70
2022-09-01T10:41:14.904Z,1.90
2022-09-01T10:43:52.885Z,1.75
2022-09-01T10:46:38.659Z,1.50
2022-09-01T10:51:51.381Z,1.60
2022-09-01T10:59:32.830Z,1.60
2022-09-01T11:02:28.372Z,1.60
2022-09-01T11:04:58.015Z,1.42
2022-09-01T11:07:50.447Z,1.40
2022-09-01T11:10:35.573Z,1.60
2022-09-01T11:13:15.931Z,1.75
2022-09-01T11:15:45.648Z,1.60
2022-09-01T11:18:29.381Z,1.80
2022-09-01T11:21:14.045Z,1.60
2022-09-01T11:23:41.766Z,1.50
2022-09-01T11:26:46.685Z,1.60
2022-09-01T11:29:51.239Z,1.60
2022-09-01T11:32:24.392Z,1.70
2022-09-01T11:34:52.779Z,1.83
2022-09-01T11:37:23.590Z,1.52
2022-09-01T11:39:58.833Z,1.60
2022-09-01T11:42:36.151Z,1.80
2022-09-01T11:45:20.814Z,1.42
2022-09-01T11:47:52.838Z,1.73
2022-09-01T11:50:26.963Z,1.55
2022-09-01T11:53:04.771Z,1.60
2022-09-01T11:56:28.595Z,1.65
2022-09-01T11:58:55.603Z,1.55
2022-09-01T12:01:33.723Z,1.58
2022-09-01T12:04:22.339Z,1.48
2022-09-01T12:06:59.373Z,1.60
2022-09-01T12:09:47.958Z,1.40
2022-09-01T12:12:36.570Z,1.58
2022-09-01T12:15:17.168Z,1.50
2022-09-01T12:17:46.684Z,1.50
2022-09-01T12:20:29.197Z,1.48
2022-09-01T12:22:58.418Z,1.60
2022-09-01T12:25:35.718Z,1.60
2022-09-01T12:28:06.138Z,1.50
2022-09-01T12:30:35.403Z,1.73
2022-09-01T12:33:23.378Z,1.70
2022-09-01T12:35:51.040Z,1.65
2022-09-01T12:38:21.114Z,1.52
2022-09-01T12:40:59.025Z,1.38
2022-09-01T12:43:35.129Z,1.65
2022-09-01T12:46:04.714Z,1.88
2022-09-01T12:48:36.053Z,1.77
2022-09-01T12:51:05.966Z,1.73
2022-09-01T12:53:36.580Z,2.00
2022-09-01T12:57:00.168Z,1.70
2022-09-01T12:59:35.969Z,1.75
2022-09-01T13:02:28.739Z,1.90
2022-09-01T13:04:56.336Z,1.70
2022-09-01T13:07:23.185Z,1.60
2022-09-01T13:09:50.044Z,1.55
2022-09-01T13:12:20.709Z,1.50
2022-09-01T13:14:48.364Z,1.60
2022-09-01T13:17:15.981Z,1.58
2022-09-01T13:19:42.971Z,1.60
2022-09-01T13:22:10.336Z,1.40
2022-09-01T13:24:37.406Z,1.45
2022-09-01T13:27:21.047Z,1.63
2022-09-01T13:29:49.335Z,1.60
2022-09-01T13:32:19.143Z,1.38
2022-09-01T13:34:49.214Z,1.70
2022-09-01T13:37:17.737Z,1.60
2022-09-01T13:39:45.744Z,2.40
2022-09-01T13:42:13.805Z,2.10
2022-09-01T13:44:40.732Z,1.88
2022-09-01T13:50:11.722Z,1.40
2022-09-01T13:52:41.545Z,2.03
2022-09-01T13:55:10.967Z,1.50
2022-09-01T14:02:34.868Z,1.50
2022-09-01T14:05:01.603Z,1.50
2022-09-01T14:07:30.035Z,1.40
2022-09-01T14:09:57.028Z,1.30
2022-09-01T14:12:24.258Z,1.30
2022-09-01T14:17:38.840Z,1.50
2022-09-01T14:20:08.839Z,1.60
2022-09-01T14:22:38.496Z,1.50
2022-09-01T14:25:07.052Z,1.35
2022-09-01T14:27:34.300Z,1.45
2022-09-01T14:30:01.147Z,1.35
2022-09-01T14:32:28.158Z,1.50
2022-09-01T14:34:56.021Z,1.90
2022-09-01T14:37:23.749Z,1.40
2022-09-01T14:39:55.225Z,1.50
2022-09-01T14:42:25.645Z,1.48
2022-09-01T14:44:52.988Z,1.73
2022-09-01T14:47:21.430Z,1.65
2022-09-01T14:49:48.384Z,1.50
2022-09-01T14:52:15.193Z,1.48
2022-09-01T14:54:42.544Z,1.50
2022-09-01T15:02:06.263Z,1.50
2022-09-01T15:04:34.014Z,2.92
2022-09-01T15:07:03.333Z,2.10
2022-09-01T15:09:30.174Z,1.88
2022-09-01T15:11:57.569Z,2.05
2022-09-01T15:14:24.639Z,1.65
2022-09-01T15:16:51.984Z,1.60
2022-09-01T15:19:18.992Z,1.70
2022-09-01T15:21:46.978Z,1.48
2022-09-01T15:24:13.893Z,1.60
2022-09-01T15:26:46.817Z,1.45
2022-09-01T15:29:15.110Z,1.58
2022-09-01T15:31:43.934Z,1.67
2022-09-01T15:34:13.684Z,1.40
2022-09-01T15:36:41.215Z,1.65
2022-09-01T15:39:09.298Z,1.70
2022-09-01T15:41:36.495Z,1.63
2022-09-01T15:44:08.119Z,1.98
2022-09-01T15:46:38.902Z,1.90
2022-09-01T15:49:08.768Z,1.70
2022-09-01T15:51:38.056Z,1.60
2022-09-01T15:54:11.808Z,1.90
2022-09-01T15:56:38.907Z,1.60
2022-09-01T16:00:03.377Z,1.70
2022-09-01T16:02:30.798Z,1.60
2022-09-01T16:04:57.708Z,1.42
2022-09-01T16:07:24.535Z,1.30
2022-09-01T16:09:57.844Z,1.70
2022-09-01T16:12:26.630Z,1.52
2022-09-01T16:14:55.213Z,1.60
2022-09-01T16:17:58.335Z,1.60
2022-09-01T16:20:35.681Z,1.80
2022-09-01T16:23:12.207Z,1.50
2022-09-01T16:25:39.338Z,1.35
2022-09-01T16:28:13.666Z,1.63
2022-09-01T16:30:40.893Z,1.60
2022-09-01T16:33:19.856Z,1.50
2022-09-01T16:36:06.454Z,1.48
2022-09-01T16:39:02.336Z,1.50
2022-09-01T16:41:34.476Z,1.70
2022-09-01T16:44:10.054Z,1.60
2022-09-01T16:46:49.715Z,1.40
2022-09-01T16:49:28.045Z,1.50
2022-09-01T16:52:05.656Z,1.50
2022-09-01T16:55:01.043Z,1.35
2022-09-01T17:02:18.861Z,1.60
2022-09-01T17:04:54.322Z,1.60
2022-09-01T17:07:49.447Z,1.77
2022-09-01T17:10:42.881Z,2.10
2022-09-01T17:13:25.996Z,3.90
2022-09-01T17:16:30.017Z,3.37
2022-09-01T17:19:04.883Z,4.15
2022-09-01T17:21:35.510Z,2.53
2022-09-01T17:24:26.053Z,2.40
2022-09-01T17:26:55.739Z,1.90
2022-09-01T17:30:02.291Z,1.73
2022-09-01T17:32:41.381Z,1.73
2022-09-01T17:35:40.772Z,1.90
2022-09-01T17:38:14.064Z,1.60
2022-09-01T17:41:14.411Z,1.70
2022-09-01T17:44:00.040Z,1.80
2022-09-01T17:46:41.638Z,1.90
2022-09-01T17:49:20.725Z,1.80
2022-09-01T17:52:03.054Z,1.58
2022-09-01T17:55:09.547Z,1.83
2022-09-01T17:57:50.894Z,1.58
2022-09-01T18:05:14.239Z,1.73
2022-09-01T18:07:44.005Z,1.77
2022-09-01T18:10:18.360Z,1.70
2022-09-01T18:12:46.717Z,1.70
2022-09-01T18:15:16.364Z,1.50
2022-09-01T18:17:53.553Z,1.60
2022-09-01T18:20:29.007Z,1.80
2022-09-01T18:23:11.211Z,1.90
2022-09-01T18:25:46.101Z,2.33
2022-09-01T18:28:14.837Z,4.00
2022-09-01T18:31:15.411Z,2.90
2022-09-01T18:34:01.325Z,2.13
2022-09-01T18:37:04.832Z,2.90
2022-09-01T18:39:50.875Z,1.90
2022-09-01T18:42:30.056Z,3.83
2022-09-01T18:45:19.114Z,3.65
2022-09-01T18:48:16.675Z,3.80
2022-09-01T18:51:05.300Z,2.58
2022-09-01T18:53:45.983Z,2.20
2022-09-01T18:56:25.012Z,2.13
2022-09-01T19:03:30.086Z,1.95
2022-09-01T19:06:26.289Z,1.98
2022-09-01T19:09:28.843Z,2.00
2022-09-01T19:12:05.755Z,1.85
2022-09-01T19:14:40.222Z,1.52
2022-09-01T19:17:30.784Z,1.50
2022-09-01T19:20:11.728Z,1.70
2022-09-01T19:22:57.043Z,1.60
2022-09-01T19:25:39.574Z,1.70
2022-09-01T19:28:25.272Z,1.52
2022-09-01T19:31:02.809Z,1.75
2022-09-01T19:33:38.251Z,1.58
2022-09-01T19:36:09.627Z,1.60
2022-09-01T19:38:37.570Z,1.90
2022-09-01T19:41:09.978Z,1.85
2022-09-01T19:43:40.332Z,1.83
2022-09-01T19:46:29.676Z,1.60
2022-09-01T19:49:03.762Z,1.73
2022-09-01T19:51:38.141Z,1.65
2022-09-01T19:54:44.212Z,1.70
2022-09-01T19:57:25.077Z,1.65
2022-09-01T20:04:48.973Z,1.95
2022-09-01T20:07:34.619Z,1.88
2022-09-01T20:10:11.170Z,2.00
2022-09-01T20:12:53.501Z,1.77
2022-09-01T20:15:38.279Z,1.67
2022-09-01T20:18:12.777Z,1.55
2022-09-01T20:20:45.763Z,1.70
2022-09-01T20:23:50.354Z,1.80
2022-09-01T20:26:41.440Z,2.35
2022-09-01T20:29:21.274Z,2.30
2022-09-01T20:31:56.663Z,2.05
2022-09-01T20:34:48.475Z,1.70
2022-09-01T20:37:38.420Z,1.90
2022-09-01T20:40:20.779Z,1.90
2022-09-01T20:42:59.478Z,2.05
2022-09-01T20:45:28.447Z,1.80
2022-09-01T20:47:59.478Z,1.90
2022-09-01T20:50:51.374Z,1.70
2022-09-01T20:54:06.016Z,1.90
2022-09-01T20:56:55.946Z,1.88
2022-09-01T20:59:36.334Z,1.85
2022-09-01T21:09:19.968Z,1.55
2022-09-01T21:11:52.713Z,1.80
2022-09-01T21:14:42.534Z,1.80
2022-09-01T21:17:12.579Z,1.80
2022-09-01T21:19:54.087Z,1.70
2022-09-01T21:22:22.505Z,1.80
2022-09-01T21:24:50.344Z,1.95
2022-09-01T21:27:19.409Z,1.70
2022-09-01T21:30:43.033Z,1.75
2022-09-01T21:33:09.915Z,6.90
2022-09-01T21:35:36.716Z,3.05
2022-09-01T21:38:03.803Z,2.40
2022-09-01T21:40:31.148Z,2.40
2022-09-01T21:43:08.231Z,3.30
2022-09-01T21:45:37.559Z,4.65
2022-09-01T21:48:05.503Z,4.82
2022-09-01T21:50:33.895Z,6.40
2022-09-01T21:53:00.804Z,4.20
2022-09-01T21:55:28.463Z,3.15
2022-09-01T21:57:55.978Z,3.83
2022-09-01T22:00:28.748Z,4.05
2022-09-01T22:02:57.745Z,2.97
2022-09-01T22:05:27.549Z,2.70
2022-09-01T22:07:56.134Z,3.30
2022-09-01T22:10:26.505Z,2.30
2022-09-01T22:12:54.322Z,2.40
2022-09-01T22:15:24.151Z,2.45
2022-09-01T22:17:52.779Z,2.50
2022-09-01T22:20:22.504Z,2.05
2022-09-01T22:22:50.981Z,1.98
2022-09-01T22:25:23.876Z,1.98
2022-09-01T22:27:50.904Z,1.85
2022-09-01T22:30:19.211Z,1.77
2022-09-01T22:32:47.903Z,1.90
2022-09-01T22:35:16.125Z,2.10
2022-09-01T22:37:43.629Z,1.70
2022-09-01T22:40:12.765Z,1.80
2022-09-01T22:42:39.709Z,1.58
2022-09-01T22:45:08.497Z,1.63
2022-09-01T22:47:37.424Z,1.60
2022-09-01T22:50:07.421Z,1.60
2022-09-01T22:52:35.608Z,1.60
2022-09-01T22:55:03.861Z,1.75
2022-09-01T22:57:30.779Z,1.70
2022-09-01T22:59:57.892Z,1.70
2022-09-01T23:07:21.966Z,1.60
2022-09-01T23:09:48.860Z,1.50
2022-09-01T23:12:15.631Z,1.40
2022-09-01T23:14:42.448Z,1.80
2022-09-01T23:17:09.342Z,1.70
2022-09-01T23:19:36.183Z,1.70
2022-09-01T23:22:03.281Z,1.75
2022-09-01T23:24:30.208Z,1.65
2022-09-01T23:26:57.270Z,1.73
2022-09-01T23:29:25.310Z,1.60
2022-09-01T23:31:52.289Z,1.75
2022-09-01T23:34:19.230Z,1.80
2022-09-01T23:36:46.369Z,1.40
2022-09-01T23:39:13.447Z,1.70
2022-09-01T23:41:40.757Z,1.73
2022-09-01T23:53:00.729Z,1.60
2022-09-01T23:55:27.964Z,1.92
2022-09-01T23:57:54.790Z,1.50
